Roundup, MT (59073)

7:51 PM MST on February 08, 2016 (GMT -0700)
MesoWest | | Change Station
CLOSE
Current Station
Personal Weather Station
Location: Roundup, MT
Elevation: 3491 ft
Nearby Weather Stations

Elev 3491 ft 46.47 °N, 108.54 °W | Updated 36 minutes ago

Partly Cloudy
Partly Cloudy
41 °F
Feels Like 36 °F
N
8
Wind Variable Wind from WSW
Gusts 0.0 mph

Today
High -- | Low -- °F
--% Chance of Precip.
Yesterday
High -- | Low -- °F
Precip. -- in
Pressure 30.37 in
Visibility 10.0 miles
Clouds Few 16000 ft
Windchill 36 °F
Dew Point 25 °F
Humidity 52%
Rainfall in
Snow Depth Not available.
7:28 AM 5:28 PM
New Moon, 0% visible
METAR KBIL 090153Z 27018KT 10SM FEW160 09/M03 A3031 RMK AO2 PK WND 28027/0123 SLP284 T00941028
Pressure 30.37 in
Visibility 10.0 miles
Clouds Few 16000 ft
Windchill 36 °F
Dew Point 25 °F
Humidity 52%
Rainfall in
Snow Depth Not available.
7:28 AM 5:28 PM
New Moon, 0% visible
METAR KBIL 090153Z 27018KT 10SM FEW160 09/M03 A3031 RMK AO2 PK WND 28027/0123 SLP284 T00941028

10-Day Weather Forecast

Almanac

Astronomy

Feb. 08, 2016 Rise Set
Actual Time
Civil Twilight
Nautical Twilight
Astronomical Twilight
Moon
Length of Visible Light
Length of Day
Tomorrow will be .
, % of the Moon is Illuminated

Today's Extremes

State Highs State Lows

Community

WunderPhotos

Upload Photos

1,891,527 photos uploaded!

WunderBlog® & News

Nearby

Air Quality

  Air Quality AQ Index Pollutant
Not available.

Snow Depth

Station Depth Elevation

Earthquake Activity

City Distance Mag. Time & Date
Minimum magnitude displayed is 2.5.

Coastal Water Temperatures

Place Temperature

Stations

Nearby Weather Stations

Station Location Temp. Windchill Dew Point Humidity Wind Precip. Elev Updated Type
                   

Watches & Warnings

There are currently no watches in effect.